Rifle, CO

6:36 PM MDT en Octubre 22, 2014 (GMT -0600)
RAWS RIFLE CO US | Change Station
CLOSE
Current Station
Estación meteorológica personal
Location: Rifle, CO
Altura: 6120 ft
Estaciones meteorológicas cercanas

Alt 6120 ft 39.51 °N, 107.75 °W | Updated 45 minutes ago

Mostly Cloudy
Muy nublado
55 ° F
Sensación térmica 55 ° F
N
5
Viento Variable Viento desde Sur
Gusts 9.0 mph

Hoy
Alta -- | Baja -- ° F
--% Posibilidad de precipitaciones
Ayer
Alta -- | Baja -- ° F
Precip. -- pul
7:28 AM 6:21 PM
Creciente menguante, 1% visible
Presión 30.08 pul
Visibilidad 10.0 Millas
Nubes Muy nublado 11000 ft
Punto de rocío 41 ° F
Humedad 59%
Precipitaciones 0.35 pul
Espesor de la nieve No disponible.
UV 0 de una escala de 12
Polen 1.10 de una escala de 12
Calidad del aire No disponible.
Flu Activity Sporadic
METAR KRIL 222353Z AUTO 26008KT 10SM BKN110 15/06 A3017 RMK AO2 SLP184 T01500056 10189 20128 51015

More Conditions Fewer Conditions

Presión 30.08 pul
Visibilidad 10.0 Millas
Nubes Muy nublado 11000 ft
Punto de rocío 41 ° F
Humedad 59%
Precipitaciones 0.35 pul
Espesor de la nieve No disponible.
UV 0 de una escala de 12
Polen 1.10 de una escala de 12
Calidad del aire No disponible.
Flu Activity Sporadic
METAR KRIL 222353Z AUTO 26008KT 10SM BKN110 15/06 A3017 RMK AO2 SLP184 T01500056 10189 20128 51015

More Conditions Fewer Conditions

10-Day Weather Forecast

Almanac

Astronomía

Oct. 22, 2014 Salida Puesta
Hora real 7:28 AM MDT 6:21 PM MDT
Crepúsculo civil 7:01 AM MDT 6:49 PM MDT
Crepúsculo náutico 6:29 AM MDT 7:20 PM MDT
Crepúsculo astronómico 5:58 AM MDT 7:51 PM MDT
Luna 6:13 AM MDT (10/22) 5:50 PM MDT (10/22)
Horas de luz 11h 48m
Horas de luz
10h 53m
Tomorrow will be 2m 25s shorter.
Creciente menguante, 1% of the Moon is Illuminated
Hoy
Creciente menguante
Oct 23
Nueva
Oct 30
Cuarto creciente
Nov 6
Luna llena
Nov 14
Cuarto menguante

Extremos de hoy

Máximos del estado Bajos del estado

Community

WunderPhotos

Upload Photos

1,764,095 ¡fotos cargadas!

WunderBlogs® & News

Nearby

Grosos de nieve

Estación Profundido Altura
Overland Reservoir 0 in 9880 ft
Park Reservoir 0 in 9960 ft
Mesa Lakes 0 in 10000 ft
McClure Pass 0 in 9500 ft
Trapper Lake 0 in 9700 ft

Actividad de terremotos

Ciudad Distance Mag. Tiempo y dato
No hay informes recientes de la actividad sísmica.
Magnitud mínima muestra es 2,5.

Temperaturas de aguas costeras

Lugar Temperatura
Sin partes meteorológicos de las estaciones

Estaciones meteorológicas cercanas